PST,Max TemperatureF,Mean TemperatureF,Min TemperatureF,Max Dew PointF,MeanDew PointF,Min DewpointF,Max Humidity, Mean Humidity, Min Humidity, Max Sea Level PressureIn, Mean Sea Level PressureIn, Min Sea Level PressureIn, Max VisibilityMiles, Mean VisibilityMiles, Min VisibilityMiles, Max Wind SpeedMPH, Mean Wind SpeedMPH, Max Gust SpeedMPH,PrecipitationIn, CloudCover, Events, WindDirDegrees
2013-2-1,54,48,43,33,25,15,59,41,22,30.22,30.18,30.13,10,10,10,7,2,,0.00,0,,112
2013-2-2,51,48,46,29,23,13,51,39,25,30.26,30.21,30.18,10,10,10,9,2,,0.00,0,,146
2013-2-3,52,48,43,32,18,7,58,32,20,30.17,30.13,30.09,10,10,10,8,3,,0.00,0,,115
2013-2-4,53,50,46,35,16,1,63,30,14,30.20,30.07,30.01,10,10,10,6,3,,0.00,0,,109
2013-2-5,45,38,30,36,28,14,100,70,37,30.05,30.01,29.96,10,8,0,13,6,17,0.00,1,Fog,153
2013-2-6,45,38,32,30,18,-3,92,51,14,30.12,30.08,30.04,10,10,10,8,4,,0.00,0,,129
2013-2-7,30,27,24,29,27,22,100,97,85,30.07,29.99,29.88,10,4,0,15,8,21,0.19,7,Fog-Rain-Snow,170
2013-2-8,33,27,21,20,15,13,89,62,46,29.97,29.92,29.90,10,10,10,14,6,26,0.00,1,,49
2013-2-9,41,32,24,17,10,5,58,42,23,30.09,29.99,29.90,10,10,10,13,8,25,0.00,0,,32
2013-2-10,42,36,30,18,15,11,59,46,31,30.06,30.03,29.98,10,10,10,9,6,20,0.00,0,,33
2013-2-11,46,37,28,20,12,9,49,37,23,30.22,30.13,30.04,10,10,10,9,5,17,0.00,0,,44
2013-2-12,45,41,37,31,21,11,70,45,31,30.28,30.24,30.18,10,10,10,8,4,,0.00,0,,358
2013-2-13,54,48,41,25,21,17,45,38,26,30.26,30.22,30.17,10,10,10,10,6,20,0.00,0,,40
2013-2-14,57,48,39,26,22,12,55,38,19,30.24,30.20,30.16,10,10,10,13,6,38,0.00,0,,74
2013-2-15,55,49,43,30,19,4,46,30,15,30.27,30.24,30.20,10,10,10,8,5,,0.00,0,,40
2013-2-16,53,48,43,32,19,3,60,34,15,30.23,30.12,30.01,10,10,10,7,2,,0.00,0,,175
2013-2-17,48,44,39,31,25,15,68,50,29,30.00,29.96,29.93,10,10,10,7,2,,0.00,0,,105
2013-2-18,43,38,32,36,31,25,100,81,49,29.94,29.87,29.81,10,6,0,16,7,26,0.00,5,Fog-Snow,168
2013-2-19,32,26,21,31,24,18,100,93,81,29.82,29.69,29.59,10,3,0,18,11,30,0.27,7,Fog-Rain-Snow,190
2013-2-20,39,32,24,32,23,15,87,73,36,30.00,29.89,29.68,10,10,4,15,9,31,0.00,1,Snow,21
2013-2-21,42,34,26,24,18,8,89,59,27,30.14,30.05,29.94,10,9,2,13,3,21,0.01,2,Snow,15
2013-2-22,48,40,33,29,22,14,78,53,28,30.18,30.14,30.09,10,10,10,12,4,,0.00,2,,66
2013-2-23,36,32,28,32,26,7,100,85,32,30.20,30.10,30.02,10,5,0,18,8,24,0.08,6,Fog-Rain-Snow,230
2013-2-24,50,39,28,21,6,-7,52,29,13,30.22,30.16,30.13,10,10,10,10,4,16,0.00,0,,2
2013-2-25,43,38,33,26,20,13,64,50,36,30.22,30.17,30.14,10,10,10,9,3,17,0.00,1,,110
2013-2-26,48,40,32,11,1,-12,37,20,9,30.18,30.14,30.11,10,10,10,14,7,25,0.00,0,,44
2013-2-27,50,44,39,22,11,-1,47,29,16,30.32,30.26,30.19,10,10,10,8,2,,0.00,1,,324
2013-2-28,52,46,39,36,28,14,71,51,35,30.42,30.38,30.30,10,10,10,7,2,,0.00,2,,355